createdAt,value
2022-08-05T00:00:17.076Z,100.00
2022-08-05T00:02:51.337Z,100.00
2022-08-05T00:06:01.458Z,100.00
2022-08-05T00:08:19.772Z,100.00
2022-08-05T00:10:52.627Z,100.00
2022-08-05T00:13:19.854Z,100.00
2022-08-05T00:15:57.551Z,100.00
2022-08-05T00:18:26.747Z,100.00
2022-08-05T00:20:56.046Z,100.00
2022-08-05T00:23:44.482Z,100.00
2022-08-05T00:26:10.125Z,100.00
2022-08-05T00:28:37.218Z,100.00
2022-08-05T00:31:07.785Z,100.00
2022-08-05T00:34:56.865Z,100.00
2022-08-05T00:37:11.599Z,100.00
2022-08-05T00:39:13.510Z,100.00
2022-08-05T00:41:51.491Z,100.00
2022-08-05T00:44:18.818Z,100.00
2022-08-05T00:46:47.528Z,100.00
2022-08-05T00:49:21.340Z,100.00
2022-08-05T00:51:51.873Z,100.00
2022-08-05T00:54:18.908Z,100.00
2022-08-05T00:56:53.582Z,100.00
2022-08-05T00:59:20.201Z,100.00
2022-08-05T01:01:48.516Z,100.00
2022-08-05T01:04:15.935Z,100.00
2022-08-05T01:06:51.737Z,100.00
2022-08-05T01:09:20.233Z,100.00
2022-08-05T01:11:50.221Z,100.00
2022-08-05T01:14:28.238Z,100.00
2022-08-05T01:17:12.130Z,100.00
2022-08-05T01:20:00.894Z,100.00
2022-08-05T01:22:51.198Z,100.00
2022-08-05T01:25:59.254Z,100.00
2022-08-05T01:28:51.672Z,100.00
2022-08-05T01:31:34.434Z,100.00
2022-08-05T01:34:35.928Z,100.00
2022-08-05T01:37:06.017Z,100.00
2022-08-05T01:39:46.609Z,100.00
2022-08-05T01:42:16.647Z,100.00
2022-08-05T01:44:45.656Z,100.00
2022-08-05T01:47:21.657Z,100.00
2022-08-05T01:50:01.736Z,100.00
2022-08-05T01:52:30.551Z,100.00
2022-08-05T01:55:04.349Z,100.00
2022-08-05T01:58:11.440Z,100.00
2022-08-05T02:00:21.531Z,100.00
2022-08-05T02:03:05.249Z,100.00
2022-08-05T02:05:34.272Z,100.00
2022-08-05T02:08:01.829Z,100.00
2022-08-05T02:10:32.400Z,100.00
2022-08-05T02:13:15.711Z,100.00
2022-08-05T02:15:55.630Z,100.00
2022-08-05T02:18:41.810Z,100.00
2022-08-05T02:21:38.015Z,100.00
2022-08-05T02:24:14.550Z,100.00
2022-08-05T02:26:56.591Z,100.00
2022-08-05T02:29:58.124Z,100.00
2022-08-05T02:32:23.679Z,100.00
2022-08-05T02:34:54.921Z,100.00
2022-08-05T02:37:22.346Z,100.00
2022-08-05T02:39:51.738Z,100.00
2022-08-05T02:42:27.354Z,100.00
2022-08-05T02:44:57.694Z,100.00
2022-08-05T02:48:07.515Z,100.00
2022-08-05T02:50:31.013Z,100.00
2022-08-05T02:52:58.743Z,100.00
2022-08-05T02:55:53.912Z,100.00
2022-08-05T02:58:15.044Z,100.00
2022-08-05T03:00:43.999Z,100.00
2022-08-05T03:03:19.478Z,100.00
2022-08-05T03:06:53.879Z,100.00
2022-08-05T03:08:38.800Z,100.00
2022-08-05T03:11:56.453Z,100.00
2022-08-05T03:16:55.873Z,100.00
2022-08-05T03:19:34.082Z,100.00
2022-08-05T03:22:04.990Z,100.00
2022-08-05T03:24:49.577Z,100.00
2022-08-05T03:27:18.531Z,100.00
2022-08-05T03:30:07.472Z,100.00
2022-08-05T03:32:35.783Z,100.00
2022-08-05T03:35:04.431Z,100.00
2022-08-05T03:37:41.642Z,100.00
2022-08-05T03:40:13.246Z,100.00
2022-08-05T03:42:52.514Z,100.00
2022-08-05T03:45:21.626Z,100.00
2022-08-05T03:47:49.589Z,100.00
2022-08-05T03:50:16.139Z,100.00
2022-08-05T03:55:53.742Z,100.00
2022-08-05T03:56:04.725Z,100.00
2022-08-05T03:58:36.273Z,100.00
2022-08-05T04:01:05.088Z,100.00
2022-08-05T04:03:36.058Z,100.00
2022-08-05T04:06:06.133Z,100.00
2022-08-05T04:08:36.382Z,100.00
2022-08-05T04:11:04.636Z,100.00
2022-08-05T04:13:49.661Z,100.00
2022-08-05T04:16:25.031Z,100.00
2022-08-05T04:18:54.049Z,100.00
2022-08-05T04:22:09.220Z,100.00
2022-08-05T04:24:22.893Z,100.00
2022-08-05T04:26:50.069Z,100.00
2022-08-05T04:29:16.588Z,100.00
2022-08-05T04:31:43.156Z,100.00
2022-08-05T04:34:31.151Z,100.00
2022-08-05T04:36:56.451Z,100.00
2022-08-05T04:39:23.120Z,100.00
2022-08-05T04:41:51.151Z,100.00
2022-08-05T04:44:21.450Z,100.00
2022-08-05T04:46:57.055Z,100.00
2022-08-05T04:49:38.925Z,100.00
2022-08-05T04:52:11.921Z,100.00
2022-08-05T04:54:38.486Z,100.00
2022-08-05T04:57:05.208Z,100.00
2022-08-05T04:59:38.290Z,100.00
2022-08-05T05:02:37.738Z,100.00
2022-08-05T05:04:53.085Z,100.00
2022-08-05T05:07:29.775Z,100.00
2022-08-05T05:09:59.196Z,100.00
2022-08-05T05:12:29.206Z,100.00
2022-08-05T05:14:55.885Z,100.00
2022-08-05T05:17:24.510Z,100.00
2022-08-05T05:20:09.739Z,100.00
2022-08-05T05:22:44.887Z,100.00
2022-08-05T05:25:16.468Z,100.00
2022-08-05T05:27:53.503Z,100.00
2022-08-05T05:30:29.123Z,100.00
2022-08-05T05:35:42.420Z,100.00
2022-08-05T05:38:12.926Z,100.00
2022-08-05T05:40:48.074Z,100.00
2022-08-05T05:43:27.940Z,100.00
2022-08-05T05:46:05.153Z,100.00
2022-08-05T05:48:32.467Z,100.00
2022-08-05T05:51:05.174Z,100.00
2022-08-05T05:53:54.062Z,100.00
2022-08-05T05:56:26.093Z,100.00
2022-08-05T05:59:02.848Z,100.00
2022-08-05T06:01:38.045Z,100.00
2022-08-05T06:04:14.444Z,100.00
2022-08-05T06:06:42.913Z,100.00
2022-08-05T06:09:17.430Z,100.00
2022-08-05T06:11:59.507Z,100.00
2022-08-05T06:14:29.220Z,100.00
2022-08-05T06:16:56.825Z,100.00
2022-08-05T06:19:34.273Z,100.00
2022-08-05T06:22:06.475Z,100.00
2022-08-05T06:24:33.982Z,100.00
2022-08-05T06:27:01.885Z,100.00
2022-08-05T06:29:52.085Z,100.00
2022-08-05T06:32:28.798Z,100.00
2022-08-05T06:34:58.327Z,100.00
2022-08-05T06:37:57.878Z,100.00
2022-08-05T06:40:18.370Z,100.00
2022-08-05T06:42:52.252Z,100.00
2022-08-05T06:45:21.248Z,100.00
2022-08-05T06:48:36.080Z,100.00
2022-08-05T06:51:00.460Z,100.00
2022-08-05T06:53:28.357Z,100.00
2022-08-05T06:55:59.689Z,100.00
2022-08-05T06:58:34.995Z,100.00
2022-08-05T07:01:05.462Z,100.00
2022-08-05T07:03:33.330Z,100.00
2022-08-05T07:06:05.972Z,100.00
2022-08-05T07:08:47.946Z,100.00
2022-08-05T07:11:22.370Z,100.00
2022-08-05T07:14:29.739Z,100.00
2022-08-05T07:17:58.405Z,100.00
2022-08-05T07:22:47.942Z,100.00
2022-08-05T07:25:54.272Z,100.00
2022-08-05T07:28:09.672Z,100.00
2022-08-05T07:30:39.874Z,100.00
2022-08-05T07:33:16.837Z,100.00
2022-08-05T07:36:03.643Z,100.00
2022-08-05T07:38:35.698Z,100.00
2022-08-05T07:42:08.288Z,100.00
2022-08-05T07:43:59.688Z,100.00
2022-08-05T07:46:27.406Z,100.00
2022-08-05T07:49:01.615Z,100.00
2022-08-05T07:51:40.835Z,100.00
2022-08-05T07:54:22.044Z,100.00
2022-08-05T07:57:01.974Z,100.00
2022-08-05T07:59:41.143Z,100.00
2022-08-05T08:02:16.554Z,100.00
2022-08-05T08:04:48.246Z,100.00
2022-08-05T08:07:16.011Z,100.00
2022-08-05T08:09:44.508Z,100.00
2022-08-05T08:12:35.639Z,100.00
2022-08-05T08:15:02.678Z,100.00
2022-08-05T08:17:31.003Z,100.00
2022-08-05T08:25:34.589Z,100.00
2022-08-05T08:28:06.319Z,100.00
2022-08-05T08:30:49.629Z,100.00
2022-08-05T08:33:36.150Z,100.00
2022-08-05T08:36:29.496Z,100.00
2022-08-05T08:41:52.215Z,100.00
2022-08-05T08:45:23.923Z,100.00
2022-08-05T08:47:47.725Z,100.00
2022-08-05T08:50:31.695Z,100.00
2022-08-05T08:52:54.043Z,100.00
2022-08-05T08:56:03.040Z,100.00
2022-08-05T08:58:18.043Z,100.00
2022-08-05T09:03:44.874Z,100.00
2022-08-05T09:06:15.758Z,100.00
2022-08-05T09:08:45.183Z,100.00
2022-08-05T09:14:54.728Z,100.00
2022-08-05T09:16:48.752Z,100.00
2022-08-05T09:19:15.659Z,100.00
2022-08-05T09:22:22.109Z,100.00
2022-08-05T09:24:37.412Z,100.00
2022-08-05T09:27:08.793Z,100.00
2022-08-05T09:29:47.724Z,100.00
2022-08-05T09:32:45.947Z,100.00
2022-08-05T09:35:10.652Z,100.00
2022-08-05T09:38:18.452Z,100.00
2022-08-05T09:40:44.480Z,100.00
2022-08-05T09:43:27.938Z,100.00
2022-08-05T09:49:07.264Z,100.00
2022-08-05T09:51:42.305Z,100.00
2022-08-05T09:54:09.460Z,100.00
2022-08-05T10:04:57.226Z,100.00
2022-08-05T10:10:15.346Z,100.00
2022-08-05T10:12:50.401Z,100.00
2022-08-05T10:15:34.275Z,95.00
2022-08-05T10:20:44.356Z,88.85
2022-08-05T10:23:34.485Z,87.80
2022-08-05T10:26:24.417Z,86.27
2022-08-05T10:28:59.445Z,87.89
2022-08-05T10:32:55.080Z,88.12
2022-08-05T10:34:12.787Z,89.15
2022-08-05T10:36:41.384Z,89.39
2022-08-05T10:39:59.333Z,90.08
2022-08-05T10:42:34.288Z,90.11
2022-08-05T10:45:01.592Z,90.89
2022-08-05T10:47:33.288Z,91.96
2022-08-05T10:50:20.669Z,91.68
2022-08-05T10:52:58.814Z,93.80
2022-08-05T10:55:26.011Z,93.54
2022-08-05T10:58:11.775Z,87.36
2022-08-05T11:06:15.070Z,75.31
2022-08-05T11:09:24.464Z,77.99
2022-08-05T11:11:59.289Z,80.74
2022-08-05T11:14:57.791Z,81.07
2022-08-05T11:20:32.498Z,70.66
2022-08-05T11:23:05.836Z,71.88
2022-08-05T11:26:04.711Z,74.37
2022-08-05T11:28:22.232Z,78.71
2022-08-05T11:31:13.026Z,80.43
2022-08-05T11:36:52.629Z,85.00
2022-08-05T11:39:47.979Z,81.08
2022-08-05T11:42:18.309Z,76.86
2022-08-05T11:44:53.904Z,69.56
2022-08-05T11:47:49.728Z,63.27
2022-08-05T11:50:17.872Z,60.22
2022-08-05T11:52:57.566Z,58.91
2022-08-05T11:55:32.100Z,53.90
2022-08-05T11:58:09.174Z,53.77
2022-08-05T12:00:38.282Z,49.33
2022-08-05T12:03:29.284Z,50.49
2022-08-05T12:06:06.528Z,47.58
2022-08-05T12:08:49.978Z,47.04
2022-08-05T12:11:22.662Z,45.97
2022-08-05T12:13:58.552Z,44.71
2022-08-05T12:16:28.952Z,44.42
2022-08-05T12:18:55.830Z,44.43
2022-08-05T12:24:14.265Z,42.32
2022-08-05T12:26:59.282Z,41.27
2022-08-05T12:29:38.848Z,42.35
2022-08-05T12:34:55.386Z,44.76
2022-08-05T12:37:23.109Z,47.81
2022-08-05T12:40:03.626Z,51.21
2022-08-05T12:42:37.563Z,49.85
2022-08-05T12:45:08.799Z,47.65
2022-08-05T12:48:01.470Z,47.51
2022-08-05T12:50:32.214Z,45.54
2022-08-05T12:52:59.971Z,46.08
2022-08-05T12:55:32.976Z,46.49
2022-08-05T12:58:38.786Z,47.76
2022-08-05T13:03:32.332Z,51.03
2022-08-05T13:06:01.223Z,55.47
2022-08-05T13:08:32.259Z,59.61
2022-08-05T13:11:00.553Z,61.12
2022-08-05T13:14:04.667Z,58.88
2022-08-05T13:16:17.359Z,54.34
2022-08-05T13:18:57.691Z,51.09
2022-08-05T13:21:28.555Z,52.07
2022-08-05T13:26:52.763Z,51.70
2022-08-05T13:29:37.866Z,54.80
2022-08-05T13:32:05.490Z,60.86
2022-08-05T13:34:32.794Z,65.80
2022-08-05T13:37:00.241Z,69.25
2022-08-05T13:40:14.151Z,72.66
2022-08-05T13:42:15.231Z,77.51
2022-08-05T13:44:46.062Z,76.90
2022-08-05T13:47:35.795Z,77.93
2022-08-05T13:50:04.657Z,79.86
2022-08-05T13:52:35.237Z,79.59
2022-08-05T13:55:02.485Z,76.46
2022-08-05T13:57:51.011Z,75.73
2022-08-05T14:00:28.000Z,70.27
2022-08-05T14:03:11.607Z,70.34
2022-08-05T14:06:24.496Z,71.05
2022-08-05T14:08:27.667Z,70.38
2022-08-05T14:10:59.637Z,71.37
2022-08-05T14:13:30.049Z,73.85
2022-08-05T14:16:06.853Z,72.62
2022-08-05T14:18:37.924Z,68.74
2022-08-05T14:22:09.121Z,67.92
2022-08-05T14:23:51.181Z,66.69
2022-08-05T14:26:36.741Z,66.75
2022-08-05T14:29:04.800Z,69.04
2022-08-05T14:32:03.026Z,69.39
2022-08-05T14:34:18.596Z,69.50
2022-08-05T14:36:50.276Z,63.86
2022-08-05T14:39:23.319Z,59.48
2022-08-05T14:42:16.708Z,58.93
2022-08-05T14:44:36.832Z,63.76
2022-08-05T14:47:03.704Z,60.89
2022-08-05T14:49:56.330Z,57.88
2022-08-05T14:52:36.280Z,59.62
2022-08-05T14:55:03.493Z,58.15
2022-08-05T14:57:34.123Z,55.99
2022-08-05T15:00:16.673Z,55.16
2022-08-05T15:05:29.950Z,51.72
2022-08-05T15:08:17.924Z,53.96
2022-08-05T15:11:00.765Z,56.08
2022-08-05T15:13:28.639Z,63.05
2022-08-05T15:16:13.185Z,67.23
2022-08-05T15:18:40.009Z,66.64
2022-08-05T15:21:08.634Z,65.58
2022-08-05T15:23:35.265Z,62.08
2022-08-05T15:26:04.770Z,64.88
2022-08-05T15:31:20.153Z,59.65
2022-08-05T15:34:04.813Z,53.52
2022-08-05T15:36:33.334Z,50.14
2022-08-05T15:41:02.714Z,56.61
2022-08-05T15:42:00.601Z,63.51
2022-08-05T15:44:35.811Z,64.62
2022-08-05T15:47:04.302Z,61.96
2022-08-05T15:49:52.064Z,53.92
2022-08-05T15:52:52.248Z,46.47
2022-08-05T15:55:16.141Z,43.92
2022-08-05T15:57:43.262Z,45.49
2022-08-05T16:00:12.340Z,45.79
2022-08-05T16:02:43.420Z,47.83
2022-08-05T16:05:17.924Z,45.84
2022-08-05T16:07:49.268Z,44.72
2022-08-05T16:10:16.374Z,45.09
2022-08-05T16:12:51.703Z,42.77
2022-08-05T16:15:20.441Z,43.31
2022-08-05T16:17:58.041Z,43.87
2022-08-05T16:20:33.369Z,45.77
2022-08-05T16:23:01.094Z,46.70
2022-08-05T16:25:34.085Z,47.63
2022-08-05T16:28:09.666Z,47.06
2022-08-05T16:30:37.746Z,44.37
2022-08-05T16:33:04.725Z,45.94
2022-08-05T16:35:33.632Z,47.11
2022-08-05T16:38:18.486Z,45.28
2022-08-05T16:40:59.732Z,46.05
2022-08-05T16:43:30.469Z,47.80
2022-08-05T16:46:07.856Z,50.11
2022-08-05T16:48:43.742Z,51.16
2022-08-05T16:51:10.924Z,49.72
2022-08-05T16:54:03.383Z,47.56
2022-08-05T16:56:26.800Z,45.29
2022-08-05T16:59:08.701Z,45.88
2022-08-05T17:01:53.068Z,46.33
2022-08-05T17:04:21.082Z,47.41
2022-08-05T17:06:53.150Z,48.19
2022-08-05T17:09:20.527Z,46.34
2022-08-05T17:17:15.332Z,47.12
2022-08-05T17:19:43.898Z,46.04
2022-08-05T17:22:25.412Z,45.81
2022-08-05T17:27:33.306Z,44.87
2022-08-05T17:30:02.411Z,44.46
2022-08-05T17:32:29.709Z,45.12
2022-08-05T17:34:58.274Z,44.59
2022-08-05T17:37:40.003Z,46.19
2022-08-05T17:40:12.854Z,47.83
2022-08-05T17:42:42.842Z,47.78
2022-08-05T17:47:58.441Z,50.62
2022-08-05T17:50:29.972Z,51.11
2022-08-05T17:55:40.301Z,50.23
2022-08-05T17:58:13.185Z,51.00
2022-08-05T18:00:45.066Z,51.60
2022-08-05T18:03:56.052Z,54.65
2022-08-05T18:06:12.404Z,59.49
2022-08-05T18:08:45.036Z,63.87
2022-08-05T18:14:04.517Z,70.40
2022-08-05T18:16:34.596Z,71.04
2022-08-05T18:19:02.176Z,73.75
2022-08-05T18:22:07.420Z,75.50
2022-08-05T18:24:15.467Z,76.86
2022-08-05T18:26:42.152Z,77.93
2022-08-05T18:29:10.562Z,79.68
2022-08-05T18:31:37.262Z,75.22
2022-08-05T18:34:12.258Z,72.66
2022-08-05T18:36:39.518Z,71.60
2022-08-05T18:44:33.118Z,75.37
2022-08-05T18:47:03.281Z,75.83
2022-08-05T18:52:33.698Z,78.42
2022-08-05T18:55:05.728Z,79.63
2022-08-05T18:57:43.179Z,81.13
2022-08-05T19:03:03.993Z,84.02
2022-08-05T19:06:13.611Z,85.59
2022-08-05T19:08:18.782Z,86.71
2022-08-05T19:10:45.610Z,88.03
2022-08-05T19:13:15.926Z,89.69
2022-08-05T19:15:59.323Z,90.88
2022-08-05T19:18:27.566Z,90.17
2022-08-05T19:20:54.410Z,90.26
2022-08-05T19:24:03.905Z,90.10
2022-08-05T19:26:09.618Z,90.68
2022-08-05T19:28:42.079Z,90.83
2022-08-05T19:33:56.410Z,91.43
2022-08-05T19:36:29.445Z,91.49
2022-08-05T19:39:00.645Z,91.70
2022-08-05T19:42:06.845Z,92.48
2022-08-05T19:47:10.393Z,93.90
2022-08-05T19:49:49.399Z,93.95
2022-08-05T19:52:31.465Z,94.93
2022-08-05T19:55:00.579Z,95.43
2022-08-05T19:57:49.057Z,96.80
2022-08-05T20:00:20.769Z,97.74
2022-08-05T20:02:47.473Z,99.01
2022-08-05T20:05:24.462Z,99.30
2022-08-05T20:07:55.037Z,100.00
2022-08-05T20:10:24.966Z,100.00
2022-08-05T20:12:52.068Z,100.00
2022-08-05T20:15:23.001Z,100.00
2022-08-05T20:18:10.042Z,100.00
2022-08-05T20:20:55.044Z,100.00
2022-08-05T20:23:23.147Z,100.00
2022-08-05T20:28:30.245Z,100.00
2022-08-05T20:31:04.473Z,100.00
2022-08-05T20:33:33.156Z,100.00
2022-08-05T20:36:01.917Z,100.00
2022-08-05T20:38:31.387Z,100.00
2022-08-05T20:41:04.672Z,100.00
2022-08-05T20:43:58.667Z,100.00
2022-08-05T20:46:25.189Z,100.00
2022-08-05T20:51:32.667Z,100.00
2022-08-05T20:54:01.057Z,100.00
2022-08-05T20:59:14.249Z,100.00
2022-08-05T21:01:46.570Z,100.00
2022-08-05T21:04:21.856Z,100.00
2022-08-05T21:09:35.194Z,100.00
2022-08-05T21:12:09.281Z,100.00
2022-08-05T21:14:46.103Z,100.00
2022-08-05T21:17:13.393Z,100.00
2022-08-05T21:19:50.389Z,100.00
2022-08-05T21:22:17.910Z,100.00
2022-08-05T21:27:27.178Z,100.00
2022-08-05T21:29:57.450Z,100.00
2022-08-05T21:32:26.702Z,100.00
2022-08-05T21:34:56.040Z,100.00
2022-08-05T21:37:35.226Z,100.00
2022-08-05T21:40:13.641Z,100.00
2022-08-05T21:42:45.208Z,100.00
2022-08-05T21:47:58.117Z,100.00
2022-08-05T21:50:26.040Z,100.00
2022-08-05T21:55:42.965Z,100.00
2022-08-05T21:58:24.834Z,100.00
2022-08-05T22:01:05.286Z,100.00
2022-08-05T22:03:48.905Z,100.00
2022-08-05T22:06:22.906Z,100.00
2022-08-05T22:08:51.821Z,100.00
2022-08-05T22:11:19.346Z,100.00
2022-08-05T22:14:34.516Z,100.00
2022-08-05T22:16:51.869Z,100.00
2022-08-05T22:20:03.255Z,100.00
2022-08-05T22:22:06.904Z,100.00
2022-08-05T22:28:09.743Z,100.00
2022-08-05T22:30:34.929Z,100.00
2022-08-05T22:33:02.555Z,100.00
2022-08-05T22:35:31.253Z,100.00
2022-08-05T22:38:14.817Z,100.00
2022-08-05T22:46:08.769Z,100.00
2022-08-05T22:48:41.750Z,100.00
2022-08-05T22:51:16.077Z,100.00
2022-08-05T22:53:51.007Z,100.00
2022-08-05T22:56:29.853Z,100.00
2022-08-05T22:58:58.533Z,100.00
2022-08-05T23:01:50.691Z,100.00
2022-08-05T23:04:17.829Z,100.00
2022-08-05T23:06:44.375Z,100.00
2022-08-05T23:09:27.121Z,100.00
2022-08-05T23:11:58.551Z,100.00
2022-08-05T23:14:31.828Z,100.00
2022-08-05T23:17:18.632Z,100.00
2022-08-05T23:19:56.494Z,100.00
2022-08-05T23:22:27.406Z,100.00
2022-08-05T23:27:57.621Z,100.00
2022-08-05T23:30:27.041Z,100.00
2022-08-05T23:32:55.709Z,100.00
2022-08-05T23:35:24.277Z,100.00
2022-08-05T23:37:55.258Z,100.00
2022-08-05T23:40:27.146Z,100.00
2022-08-05T23:42:54.296Z,100.00
2022-08-05T23:48:03.127Z,100.00
2022-08-05T23:50:31.128Z,100.00
2022-08-05T23:55:38.367Z,100.00
2022-08-05T23:58:08.015Z,100.00
